Time;durP1;ratioP1;P1;durP2;ratioP2;P2;SDS_P1;SDS_P2;PMS_P1;PMS_P2;Temp;Humidity;BMP_temperature;BMP_pressure;BME280_temperature;BME280_humidity;BME280_pressure;Samples;Min_cycle;Max_cycle;Signal;HPM_P1;HPM_P2
2022/03/29 00:01:37;;;;;;;46.85;35.90;;;;;;;7.99;100.00;101761.47;10380830;28;20040;-75
2022/03/29 00:06:38;;;;;;;58.22;35.17;;;;;;;7.98;100.00;101759.78;10389023;28;20038;-74
2022/03/29 00:11:38;;;;;;;49.75;34.35;;;;;;;7.85;100.00;101744.03;10386828;28;20470;-74
2022/03/29 00:16:39;;;;;;;54.03;38.80;;;;;;;7.86;100.00;101738.47;10386407;28;20037;-75
2022/03/29 00:21:39;;;;;;;48.33;37.80;;;;;;;7.83;100.00;101736.09;10388422;28;20033;-74
2022/03/29 00:26:41;;;;;;;53.38;36.17;;;;;;;7.81;100.00;101731.84;10387722;28;20041;-75
2022/03/29 00:31:41;;;;;;;51.38;32.45;;;;;;;7.83;100.00;101724.47;10388600;28;20087;-75
2022/03/29 00:36:41;;;;;;;48.05;32.90;;;;;;;7.86;100.00;101718.75;10387046;28;20095;-74
2022/03/29 00:41:42;;;;;;;46.90;32.40;;;;;;;7.83;100.00;101713.69;10386611;28;20033;-74
2022/03/29 00:46:42;;;;;;;47.47;33.95;;;;;;;7.80;100.00;101708.59;10388950;28;20034;-75
2022/03/29 00:51:43;;;;;;;51.60;30.40;;;;;;;7.79;100.00;101707.75;10387844;28;20034;-74
2022/03/29 00:56:43;;;;;;;58.28;35.97;;;;;;;7.78;100.00;101699.81;10392242;28;20069;-75
2022/03/29 01:01:44;;;;;;;45.70;34.15;;;;;;;7.83;100.00;101700.19;10391250;28;20049;-75
2022/03/29 01:06:44;;;;;;;41.35;30.52;;;;;;;7.80;100.00;101689.72;10387041;28;20033;-74
2022/03/29 01:11:45;;;;;;;44.67;32.17;;;;;;;7.80;100.00;101695.13;10384596;28;20057;-74
2022/03/29 01:22:07;;;;;;;39.35;30.10;;;;;;;7.84;100.00;101674.91;10388288;28;20042;-74
2022/03/29 01:27:07;;;;;;;40.17;30.25;;;;;;;7.74;100.00;101674.19;10389027;28;20057;-75
2022/03/29 01:32:08;;;;;;;43.05;30.50;;;;;;;7.81;100.00;101672.53;10383832;28;20124;-74
2022/03/29 01:37:09;;;;;;;39.38;29.10;;;;;;;7.74;100.00;101669.63;10388100;28;20045;-74
2022/03/29 01:42:09;;;;;;;41.33;29.42;;;;;;;7.80;100.00;101660.06;10397271;28;20041;-75
2022/03/29 01:47:10;;;;;;;42.40;29.30;;;;;;;7.64;100.00;101669.75;10394414;28;20365;-74
2022/03/29 01:52:10;;;;;;;43.58;28.38;;;;;;;7.49;100.00;101657.84;10387961;28;20064;-75
2022/03/29 01:57:11;;;;;;;42.60;27.17;;;;;;;7.51;100.00;101655.84;10379145;28;20042;-74
2022/03/29 02:02:12;;;;;;;47.17;29.20;;;;;;;7.46;100.00;101644.69;10395235;28;20087;-75
2022/03/29 02:07:13;;;;;;;40.95;27.52;;;;;;;7.55;100.00;101642.91;10395043;28;20080;-74
2022/03/29 02:12:13;;;;;;;42.75;28.90;;;;;;;7.51;100.00;101628.91;10392419;28;20057;-74
2022/03/29 02:17:13;;;;;;;48.55;28.45;;;;;;;7.58;100.00;101619.16;10393260;28;20038;-75
2022/03/29 02:22:14;;;;;;;44.42;29.85;;;;;;;7.57;100.00;101619.34;10396545;28;20042;-74
2022/03/29 02:27:14;;;;;;;42.72;31.98;;;;;;;7.58;100.00;101612.94;10392194;28;20045;-75
2022/03/29 02:32:15;;;;;;;51.67;32.35;;;;;;;7.50;100.00;101613.75;10387371;28;20048;-75
2022/03/29 02:37:15;;;;;;;39.85;30.70;;;;;;;7.52;100.00;101602.78;10387421;28;20359;-74
2022/03/29 02:42:15;;;;;;;47.10;33.38;;;;;;;7.53;100.00;101591.88;10392335;28;20050;-75
2022/03/29 02:47:16;;;;;;;41.17;30.70;;;;;;;7.59;100.00;101587.66;10404492;28;20046;-75
2022/03/29 02:52:16;;;;;;;40.75;30.70;;;;;;;7.54;100.00;101579.25;10402052;28;20134;-74
2022/03/29 02:57:17;;;;;;;50.25;31.27;;;;;;;7.49;100.00;101581.56;10392951;28;20044;-74
2022/03/29 03:02:18;;;;;;;53.47;33.03;;;;;;;7.33;100.00;101571.53;10388950;28;20042;-73
2022/03/29 03:07:18;;;;;;;57.97;36.40;;;;;;;7.29;100.00;101564.78;10385952;28;20457;-75
2022/03/29 03:12:19;;;;;;;46.28;33.15;;;;;;;7.20;100.00;101553.09;10390887;28;20038;-74
2022/03/29 03:17:20;;;;;;;61.50;38.70;;;;;;;7.14;100.00;101541.13;10392022;28;20026;-75
2022/03/29 03:22:20;;;;;;;50.67;31.95;;;;;;;7.23;100.00;101542.84;10392745;28;20030;-74
2022/03/29 03:27:20;;;;;;;52.40;34.65;;;;;;;7.28;100.00;101528.94;10390740;28;20033;-74
2022/03/29 03:32:21;;;;;;;52.97;35.15;;;;;;;7.19;100.00;101527.19;10389617;28;20030;-74
2022/03/29 03:37:21;;;;;;;47.20;34.80;;;;;;;7.10;100.00;101520.91;10390716;28;20038;-74
2022/03/29 03:42:22;;;;;;;46.75;34.13;;;;;;;7.09;100.00;101513.84;10391414;28;20481;-74
2022/03/29 03:47:22;;;;;;;48.47;34.15;;;;;;;7.04;100.00;101513.47;10394345;28;20037;-74
2022/03/29 03:52:23;;;;;;;53.95;37.10;;;;;;;6.98;100.00;101508.72;10391585;28;20034;-75
2022/03/29 03:57:23;;;;;;;62.55;41.83;;;;;;;6.98;100.00;101495.25;10391523;28;20033;-74
2022/03/29 04:02:24;;;;;;;53.70;36.70;;;;;;;6.96;100.00;101489.19;10387245;28;20042;-74
2022/03/29 04:07:24;;;;;;;55.58;38.45;;;;;;;6.96;100.00;101494.56;10386911;28;20049;-74
2022/03/29 04:12:24;;;;;;;64.88;39.33;;;;;;;6.90;100.00;101489.81;10387513;28;20036;-74
2022/03/29 04:17:25;;;;;;;57.90;40.17;;;;;;;6.93;100.00;101482.28;10367657;28;20042;-74
2022/03/29 04:22:25;;;;;;;62.55;38.22;;;;;;;6.97;100.00;101489.00;10384226;28;20038;-74
2022/03/29 04:27:25;;;;;;;68.68;36.70;;;;;;;7.01;100.00;101484.16;10386015;28;20041;-74
2022/03/29 04:32:26;;;;;;;61.00;41.20;;;;;;;7.03;100.00;101479.47;10383790;28;20030;-74
2022/03/29 04:37:26;;;;;;;54.95;38.97;;;;;;;7.09;100.00;101478.00;10379205;28;20045;-74
2022/03/29 04:42:27;;;;;;;70.35;42.45;;;;;;;6.99;100.00;101473.56;10384114;28;20135;-74
2022/03/29 04:47:27;;;;;;;71.82;42.85;;;;;;;6.99;100.00;101470.88;10380069;28;20061;-74
2022/03/29 04:52:28;;;;;;;75.93;45.45;;;;;;;7.01;100.00;101468.00;10310947;28;20053;-73
2022/03/29 04:57:28;;;;;;;113.70;51.60;;;;;;;7.08;100.00;101458.25;10370397;28;20409;-74
2022/03/29 05:02:29;;;;;;;69.38;43.88;;;;;;;7.07;100.00;101461.97;10373841;28;20144;-73
2022/03/29 05:07:29;;;;;;;83.32;45.50;;;;;;;7.05;100.00;101447.84;10374801;28;20111;-72
2022/03/29 05:12:29;;;;;;;74.75;45.75;;;;;;;7.04;100.00;101459.59;10376031;28;20022;-73
2022/03/29 05:17:31;;;;;;;70.90;44.45;;;;;;;7.05;100.00;101471.22;10380953;28;20029;-73
2022/03/29 05:22:31;;;;;;;60.63;37.97;;;;;;;7.07;100.00;101475.44;10391561;28;20113;-75
2022/03/29 05:27:32;;;;;;;71.30;44.63;;;;;;;7.08;100.00;101466.34;10395978;28;20477;-74
2022/03/29 05:32:32;;;;;;;77.50;45.22;;;;;;;7.08;100.00;101468.19;10397712;28;20026;-74
2022/03/29 05:37:33;;;;;;;73.53;43.58;;;;;;;7.12;100.00;101478.50;10402330;28;20037;-74
2022/03/29 05:42:42;;;;;;;65.68;38.40;;;;;;;7.10;100.00;101479.66;10410846;28;20041;-75
2022/03/29 05:53:03;;;;;;;73.90;41.72;;;;;;;7.14;100.00;101475.63;10396773;28;20025;-75
2022/03/29 05:58:04;;;;;;;65.18;40.63;;;;;;;7.11;100.00;101465.19;10396985;28;20091;-75
2022/03/29 06:03:04;;;;;;;67.85;40.78;;;;;;;7.03;100.00;101474.06;10393319;28;20033;-74
2022/03/29 06:08:05;;;;;;;69.72;40.80;;;;;;;6.79;100.00;101455.91;10391303;28;20057;-74
2022/03/29 06:13:08;;;;;;;72.60;44.08;;;;;;;6.70;100.00;101463.13;10389828;28;20492;-74
2022/03/29 06:18:09;;;;;;;63.67;39.10;;;;;;;6.77;100.00;101457.94;10397849;28;20042;-74
2022/03/29 06:23:09;;;;;;;63.65;40.92;;;;;;;6.82;100.00;101452.06;10395896;28;20030;-75
2022/03/29 06:28:10;;;;;;;61.92;40.38;;;;;;;6.91;100.00;101464.59;10399117;28;20045;-74
2022/03/29 06:33:11;;;;;;;59.20;38.67;;;;;;;6.99;100.00;101468.16;10394064;28;20030;-74
2022/03/29 06:38:11;;;;;;;67.97;36.67;;;;;;;7.02;100.00;101476.91;10375543;28;20097;-74
2022/03/29 06:43:12;;;;;;;46.17;31.17;;;;;;;6.93;100.00;101473.34;10392069;28;20037;-74
2022/03/29 06:48:13;;;;;;;44.30;33.03;;;;;;;6.76;100.00;101472.38;10390921;28;20034;-74
2022/03/29 06:53:13;;;;;;;49.55;33.92;;;;;;;6.78;100.00;101469.56;10393152;28;20018;-74
2022/03/29 06:58:14;;;;;;;54.28;34.00;;;;;;;6.77;100.00;101478.66;10378727;28;20038;-74
2022/03/29 07:03:14;;;;;;;53.63;33.13;;;;;;;6.68;100.00;101473.19;10389809;28;20026;-74
2022/03/29 07:08:16;;;;;;;30.05;20.98;;;;;;;6.65;100.00;101473.50;10391961;28;20046;-74
2022/03/29 07:13:17;;;;;;;55.20;36.38;;;;;;;6.73;100.00;101467.31;10394055;28;20132;-74
2022/03/29 07:18:17;;;;;;;54.15;35.53;;;;;;;7.03;100.00;101476.78;10390146;28;20033;-74
2022/03/29 07:23:18;;;;;;;47.55;34.05;;;;;;;7.12;100.00;101473.13;10394178;28;20048;-74
2022/03/29 07:28:18;;;;;;;56.78;36.67;;;;;;;7.06;100.00;101481.00;10392046;28;20344;-75
2022/03/29 07:33:19;;;;;;;58.95;33.60;;;;;;;7.18;100.00;101485.94;10392501;28;20057;-75
2022/03/29 07:38:20;;;;;;;46.55;30.98;;;;;;;6.99;100.00;101462.78;10390757;28;20033;-75
2022/03/29 07:43:20;;;;;;;50.92;34.58;;;;;;;6.89;100.00;101464.75;10391260;28;20040;-75
2022/03/29 07:48:22;;;;;;;56.45;35.20;;;;;;;6.92;100.00;101460.88;10390437;28;20045;-74
2022/03/29 07:53:25;;;;;;;53.17;35.97;;;;;;;7.07;100.00;101471.91;10391560;28;20378;-74
2022/03/29 07:58:25;;;;;;;46.70;30.63;;;;;;;7.15;100.00;101471.97;10390552;28;20034;-73
2022/03/29 08:03:32;;;;;;;48.13;28.90;;;;;;;6.97;100.00;101458.56;10392132;28;20057;-74
2022/03/29 08:08:34;;;;;;;46.65;28.55;;;;;;;7.06;100.00;101462.97;10389200;28;20046;-73
2022/03/29 08:13:35;;;;;;;39.13;29.58;;;;;;;7.21;100.00;101465.91;10370827;28;20041;-74
2022/03/29 08:18:38;;;;;;;36.63;27.65;;;;;;;7.41;100.00;101458.41;10388269;28;20026;-74
2022/03/29 08:23:38;;;;;;;31.88;24.17;;;;;;;7.77;100.00;101455.47;10394148;28;20032;-74
2022/03/29 08:28:38;;;;;;;38.78;25.58;;;;;;;7.82;100.00;101458.53;10393201;28;20041;-74
2022/03/29 08:33:39;;;;;;;49.08;26.02;;;;;;;7.83;100.00;101461.06;10394860;28;20331;-74
2022/03/29 08:38:39;;;;;;;38.17;25.42;;;;;;;8.02;100.00;101468.00;10393544;28;20037;-74
2022/03/29 08:43:40;;;;;;;34.30;25.98;;;;;;;7.93;100.00;101467.13;10390195;28;20022;-74
2022/03/29 08:48:40;;;;;;;35.92;26.95;;;;;;;7.92;99.74;101451.13;10387488;28;20026;-74
2022/03/29 08:53:43;;;;;;;37.45;25.83;;;;;;;8.15;99.28;101452.16;10397509;28;20033;-75
2022/03/29 08:58:43;;;;;;;36.33;25.63;;;;;;;8.16;98.70;101439.50;10398522;28;20030;-74
2022/03/29 09:03:44;;;;;;;39.50;24.85;;;;;;;8.32;98.53;101447.59;10398048;28;20037;-74
2022/03/29 09:08:45;;;;;;;37.55;24.63;;;;;;;8.51;97.46;101448.28;10378739;28;20065;-74
2022/03/29 09:13:46;;;;;;;42.72;25.52;;;;;;;8.38;97.23;101443.41;10392963;28;20026;-75
2022/03/29 09:18:55;;;;;;;35.35;23.08;;;;;;;8.96;96.38;101447.69;10377862;28;20037;-74
2022/03/29 09:24:12;;;;;;;42.50;25.15;;;;;;;8.99;94.04;101438.38;10400413;28;20049;-75
2022/03/29 09:29:14;;;;;;;46.05;23.73;;;;;;;8.79;95.10;101438.78;10399367;28;20037;-75
2022/03/29 09:34:19;;;;;;;29.20;19.60;;;;;;;8.70;93.61;101436.28;10382944;28;20037;-74
2022/03/29 09:39:32;;;;;;;37.60;26.38;;;;;;;8.49;94.65;101424.19;10399176;28;20033;-74
2022/03/29 09:44:39;;;;;;;44.25;27.23;;;;;;;8.33;96.06;101429.56;10396830;28;20030;-74
2022/03/29 09:50:05;;;;;;;38.78;24.98;;;;;;;9.19;95.13;101431.56;10398908;28;20033;-75
2022/03/29 09:55:15;;;;;;;33.47;24.00;;;;;;;9.46;91.36;101421.31;10396928;28;20034;-74
2022/03/29 10:00:32;;;;;;;38.00;25.38;;;;;;;9.50;91.94;101423.47;10399830;28;20101;-74
2022/03/29 10:05:32;;;;;;;;;;;;;;;9.64;90.72;101412.94;10398086;28;20029;-75
2022/03/29 10:10:33;;;;;;;36.78;22.30;;;;;;;9.70;90.24;101409.47;10393251;28;19924;-74
2022/03/29 10:15:34;;;;;;;35.42;23.67;;;;;;;9.94;89.48;101409.31;10375514;28;20034;-74
2022/03/29 10:20:35;;;;;;;41.42;26.65;;;;;;;10.06;89.39;101389.97;10377594;28;20053;-75
2022/03/29 10:25:35;;;;;;;36.13;24.02;;;;;;;10.17;88.35;101403.03;10395886;28;20177;-74
2022/03/29 10:30:41;;;;;;;40.17;24.60;;;;;;;10.42;87.93;101390.16;10372073;28;20084;-74
2022/03/29 10:36:11;;;;;;;31.77;22.67;;;;;;;10.29;86.17;101398.91;10395210;28;20033;-74
2022/03/29 10:41:27;;;;;;;39.28;24.95;;;;;;;10.59;85.93;101382.69;10380168;28;20466;-74
2022/03/29 10:46:50;;;;;;;37.92;23.98;;;;;;;10.55;85.36;101393.06;10389599;28;20053;-75
2022/03/29 10:52:20;;;;;;;31.58;22.15;;;;;;;10.43;85.52;101379.16;10393241;28;20040;-74
2022/03/29 10:57:25;;;;;;;35.60;24.38;;;;;;;10.21;85.75;101385.41;10385391;28;20061;-74
2022/03/29 11:02:25;;;;;;;34.55;22.67;;;;;;;9.91;86.45;101379.91;10389946;28;20474;-75
2022/03/29 11:07:26;;;;;;;31.60;20.42;;;;;;;9.75;87.40;101372.78;10388802;28;20109;-75
2022/03/29 11:12:49;;;;;;;34.15;22.85;;;;;;;9.62;88.55;101363.59;10386893;28;20049;-75
2022/03/29 11:17:56;;;;;;;34.72;24.95;;;;;;;9.59;88.91;101366.66;10390693;28;20018;-76
2022/03/29 11:22:58;;;;;;;33.00;22.52;;;;;;;9.94;88.54;101368.72;10392548;28;20154;-76
2022/03/29 11:28:07;;;;;;;38.70;22.98;;;;;;;10.50;85.23;101357.59;10392966;28;20429;-75
2022/03/29 11:33:08;;;;;;;42.42;23.30;;;;;;;10.72;83.43;101342.28;10394436;28;20040;-75
2022/03/29 11:38:13;;;;;;;32.80;22.80;;;;;;;11.71;80.25;101342.59;10393543;28;20117;-75
2022/03/29 11:43:19;;;;;;;35.28;23.25;;;;;;;12.61;76.40;101332.84;10391728;28;20026;-76
2022/03/29 11:48:21;;;;;;;37.47;22.55;;;;;;;12.79;74.36;101329.59;10398726;28;20025;-75
2022/03/29 11:53:32;;;;;;;33.83;22.13;;;;;;;12.99;73.44;101310.66;10398633;28;20032;-75
2022/03/29 11:58:40;;;;;;;37.67;22.60;;;;;;;12.54;73.64;101299.38;10397617;28;20026;-75
2022/03/29 12:03:45;;;;;;;31.20;22.88;;;;;;;12.60;75.00;101295.00;10399167;28;20453;-75
2022/03/29 12:08:55;;;;;;;35.58;22.00;;;;;;;12.61;72.99;101286.66;10397885;28;20053;-74
2022/03/29 12:14:13;;;;;;;31.73;20.10;;;;;;;13.12;74.19;101280.81;10389557;28;20036;-76
2022/03/29 12:19:25;;;;;;;24.58;17.40;;;;;;;13.67;67.33;101269.81;10398027;28;20037;-75
2022/03/29 12:24:27;;;;;;;37.03;20.88;;;;;;;13.35;67.77;101260.59;10383228;28;20033;-75
2022/03/29 12:29:27;;;;;;;24.35;19.13;;;;;;;13.36;68.71;101259.53;10404463;28;20092;-75
2022/03/29 12:34:29;;;;;;;23.27;18.25;;;;;;;13.15;70.00;101244.22;10392194;28;20034;-75
2022/03/29 12:39:39;;;;;;;35.05;20.60;;;;;;;13.25;69.11;101233.78;10384704;28;20535;-74
2022/03/29 12:44:46;;;;;;;35.38;22.10;;;;;;;13.59;70.06;101227.34;10400952;28;20335;-75
2022/03/29 12:49:49;;;;;;;23.45;18.35;;;;;;;13.68;67.46;101208.88;10412179;28;20038;-74
2022/03/29 12:54:50;;;;;;;27.88;18.67;;;;;;;13.94;64.24;101210.75;10408877;28;20088;-75
2022/03/29 13:00:02;;;;;;;26.23;17.92;;;;;;;13.71;62.97;101200.31;10402704;28;20036;-75
2022/03/29 13:05:07;;;;;;;31.50;17.83;;;;;;;13.61;63.05;101199.91;10410786;28;20061;-75
2022/03/29 13:10:10;;;;;;;27.77;16.25;;;;;;;14.13;62.03;101190.78;10392131;28;20045;-75
2022/03/29 13:15:48;;;;;;;27.25;18.67;;;;;;;15.56;59.33;101182.22;10403675;28;20025;-75
2022/03/29 13:20:50;;;;;;;35.03;16.95;;;;;;;16.26;55.16;101165.56;10408931;28;20033;-75
2022/03/29 13:25:50;;;;;;;21.95;17.55;;;;;;;16.10;54.83;101155.25;10400937;28;20030;-75
2022/03/29 13:30:50;;;;;;;30.20;19.55;;;;;;;16.17;57.04;101144.25;10402099;28;20033;-75
2022/03/29 13:35:51;;;;;;;30.23;17.77;;;;;;;15.99;56.64;101143.19;10401584;28;20038;-75
2022/03/29 13:40:52;;;;;;;17.67;14.57;;;;;;;16.22;54.44;101138.94;10406588;28;20025;-75
2022/03/29 13:45:52;;;;;;;21.50;17.40;;;;;;;15.28;56.05;101128.13;10380441;28;20029;-75
2022/03/29 13:50:53;;;;;;;20.63;17.27;;;;;;;14.95;58.03;101122.91;10407012;28;20034;-75
2022/03/29 13:55:53;;;;;;;27.90;18.73;;;;;;;14.55;59.81;101117.75;10408600;28;20091;-75
2022/03/29 14:00:54;;;;;;;30.88;16.77;;;;;;;14.39;58.85;101116.34;10407333;28;20030;-75
2022/03/29 14:05:55;;;;;;;23.63;16.73;;;;;;;14.15;59.45;101112.44;10406720;28;20018;-75
2022/03/29 14:10:59;;;;;;;27.27;15.88;;;;;;;13.82;59.33;101103.56;10401081;28;20046;-78
2022/03/29 14:16:01;;;;;;;31.52;18.83;;;;;;;13.85;62.36;101097.72;10406579;28;20128;-75
2022/03/29 14:21:01;;;;;;;27.15;19.42;;;;;;;14.07;61.03;101099.09;10406302;28;20447;-76
2022/03/29 14:26:01;;;;;;;30.60;17.48;;;;;;;14.40;60.80;101090.75;10410571;28;20040;-75
2022/03/29 14:31:02;;;;;;;27.63;19.10;;;;;;;14.73;60.51;101084.28;10407191;28;20045;-75
2022/03/29 14:36:02;;;;;;;22.95;16.88;;;;;;;14.58;58.89;101068.25;10409297;28;20466;-76
2022/03/29 14:41:03;;;;;;;24.77;16.25;;;;;;;14.68;58.59;101059.59;10402986;28;20092;-75
2022/03/29 14:46:04;;;;;;;28.08;16.77;;;;;;;14.84;56.37;101066.38;10402434;28;20052;-75
2022/03/29 14:51:05;;;;;;;30.45;17.35;;;;;;;14.82;60.07;101049.41;10402729;28;20045;-75
2022/03/29 14:56:07;;;;;;;23.55;16.92;;;;;;;14.98;55.73;101045.28;10402488;28;20038;-75
2022/03/29 15:01:07;;;;;;;23.52;17.23;;;;;;;14.59;55.20;101042.66;10403372;28;20026;-75
2022/03/29 15:06:08;;;;;;;28.15;18.13;;;;;;;14.33;56.10;101030.03;10398041;28;20037;-75
2022/03/29 15:11:08;;;;;;;29.70;19.02;;;;;;;14.40;57.07;101021.81;10398279;28;20048;-75
2022/03/29 15:16:08;;;;;;;27.55;15.82;;;;;;;14.27;55.17;101017.28;10389408;28;20036;-75
2022/03/29 15:21:09;;;;;;;28.20;15.55;;;;;;;14.23;55.64;101010.59;10399769;28;20450;-76
2022/03/29 15:26:09;;;;;;;25.02;17.63;;;;;;;14.53;56.12;101008.13;10375861;28;20026;-75
2022/03/29 15:31:10;;;;;;;20.88;15.40;;;;;;;14.73;54.06;101009.84;10402931;28;20041;-76
2022/03/29 15:36:10;;;;;;;26.63;17.20;;;;;;;14.44;54.47;100995.78;10401709;28;20026;-76
2022/03/29 15:41:13;;;;;;;25.02;15.30;;;;;;;14.17;53.98;100981.53;10401952;28;20030;-75
2022/03/29 15:46:13;;;;;;;24.45;16.85;;;;;;;13.77;56.13;100975.44;10395524;28;20093;-75
2022/03/29 15:51:13;;;;;;;27.85;17.33;;;;;;;13.61;55.84;100976.78;10397045;28;20030;-75
2022/03/29 15:56:14;;;;;;;26.20;17.55;;;;;;;13.47;57.46;100978.72;10397109;28;20079;-75
2022/03/29 16:01:14;;;;;;;26.35;16.75;;;;;;;13.40;56.22;100973.31;10392271;28;20037;-75
2022/03/29 16:06:15;;;;;;;31.15;15.70;;;;;;;13.30;56.86;100969.34;10393710;28;20034;-75
2022/03/29 16:11:15;;;;;;;29.63;16.33;;;;;;;13.44;57.97;100968.25;10376486;28;20397;-75
2022/03/29 16:16:16;;;;;;;26.13;18.08;;;;;;;13.56;59.20;100960.25;10400911;28;20036;-76
2022/03/29 16:21:16;;;;;;;28.85;17.98;;;;;;;13.42;60.23;100967.63;10395584;28;20030;-75
2022/03/29 16:26:17;;;;;;;31.60;19.42;;;;;;;13.38;60.81;100952.81;10385955;28;20037;-74
2022/03/29 16:31:20;;;;;;;21.65;16.48;;;;;;;13.35;60.07;100962.22;10391059;28;20036;-75
2022/03/29 16:36:25;;;;;;;21.95;16.38;;;;;;;13.20;60.32;100946.13;10390569;28;20457;-75
2022/03/29 16:41:25;;;;;;;22.75;18.15;;;;;;;12.99;61.55;100954.56;10388083;28;20050;-75
2022/03/29 16:46:27;;;;;;;42.17;19.90;;;;;;;12.90;61.27;100945.78;10383377;28;20561;-74
2022/03/29 16:51:27;;;;;;;32.45;18.10;;;;;;;12.82;61.65;100945.16;10388631;28;20116;-75
2022/03/29 16:56:29;;;;;;;27.70;18.48;;;;;;;12.75;62.11;100947.88;10386774;28;20029;-75
2022/03/29 17:01:29;;;;;;;30.40;17.38;;;;;;;12.51;62.29;100949.38;10389863;28;20469;-75
2022/03/29 17:06:30;;;;;;;29.42;18.45;;;;;;;12.37;62.60;100955.84;10398236;28;20107;-75
2022/03/29 17:11:34;;;;;;;24.92;18.10;;;;;;;12.12;63.65;100953.72;10389978;28;20053;-75
2022/03/29 17:16:36;;;;;;;29.85;17.83;;;;;;;12.04;64.25;100960.19;10396845;28;20454;-75
2022/03/29 17:21:37;;;;;;;29.77;18.73;;;;;;;11.91;65.76;100959.31;10395578;28;20052;-76
2022/03/29 17:26:38;;;;;;;32.75;18.77;;;;;;;11.70;66.30;100963.81;10379529;28;20033;-75
2022/03/29 17:31:39;;;;;;;34.63;18.45;;;;;;;11.68;66.27;100970.47;10374445;28;20065;-76
2022/03/29 17:36:39;;;;;;;33.10;17.55;;;;;;;11.56;67.99;100971.06;10392467;28;20026;-75
2022/03/29 17:41:40;;;;;;;28.98;17.70;;;;;;;11.39;68.71;100972.44;10396922;28;20030;-75
2022/03/29 17:46:40;;;;;;;28.42;17.45;;;;;;;11.37;68.25;100971.81;10395483;28;20101;-75
2022/03/29 17:51:40;;;;;;;33.03;17.55;;;;;;;11.33;69.02;100975.97;10393254;28;20029;-76
2022/03/29 17:56:41;;;;;;;25.58;18.02;;;;;;;11.10;68.85;100974.38;10390319;28;20045;-75
2022/03/29 18:01:41;;;;;;;41.70;19.45;;;;;;;11.05;69.61;100981.44;10393179;28;20038;-75
2022/03/29 18:06:42;;;;;;;31.75;21.58;;;;;;;10.99;69.61;100976.81;10392133;28;20030;-75
2022/03/29 18:11:44;;;;;;;31.10;19.05;;;;;;;10.93;69.81;100978.41;10393758;28;20041;-74
2022/03/29 18:16:44;;;;;;;43.63;20.85;;;;;;;10.68;72.79;100976.16;10395516;28;20030;-76
2022/03/29 18:21:44;;;;;;;30.95;20.02;;;;;;;10.52;73.35;100965.59;10395510;28;20454;-75
2022/03/29 18:26:45;;;;;;;35.20;21.27;;;;;;;10.38;74.04;100961.13;10399177;28;20038;-75
2022/03/29 18:31:45;;;;;;;28.30;20.80;;;;;;;10.32;74.46;100962.72;10398805;28;20029;-75
2022/03/29 18:36:46;;;;;;;33.55;22.00;;;;;;;10.35;74.60;100964.22;10398305;28;20037;-75
2022/03/29 18:41:46;;;;;;;25.63;19.63;;;;;;;10.21;75.40;100965.91;10392371;28;20026;-75
2022/03/29 18:46:48;;;;;;;34.83;22.05;;;;;;;10.11;75.34;100957.28;10387681;28;20030;-75
2022/03/29 18:51:48;;;;;;;34.90;20.70;;;;;;;9.97;76.84;100950.91;10398869;28;20034;-75
2022/03/29 18:56:48;;;;;;;38.78;19.13;;;;;;;9.90;76.43;100961.66;10385059;28;20037;-74
2022/03/29 19:01:50;;;;;;;29.20;21.23;;;;;;;9.75;77.47;100960.84;10363862;28;20034;-74
2022/03/29 19:06:50;;;;;;;29.45;18.85;;;;;;;9.58;78.66;100957.56;10379439;28;20038;-74
2022/03/29 19:11:51;;;;;;;32.50;20.10;;;;;;;9.44;79.74;100950.28;10385520;28;20050;-75
2022/03/29 19:16:52;;;;;;;30.98;19.75;;;;;;;9.28;79.77;100944.09;10388358;28;20046;-75
2022/03/29 19:21:53;;;;;;;29.60;17.55;;;;;;;9.18;81.09;100958.91;10371733;28;20030;-75
2022/03/29 19:26:53;;;;;;;50.92;20.80;;;;;;;9.13;80.62;100955.94;10385773;28;20103;-76
2022/03/29 19:31:53;;;;;;;35.28;18.05;;;;;;;9.08;81.45;100965.41;10384668;28;20473;-74
2022/03/29 19:36:55;;;;;;;22.92;16.33;;;;;;;9.13;83.14;100956.78;10378871;28;20061;-73
2022/03/29 19:41:56;;;;;;;24.90;15.77;;;;;;;9.20;82.44;100962.25;10378513;28;20168;-77
2022/03/29 19:46:56;;;;;;;25.02;17.25;;;;;;;9.11;82.53;100947.16;10377589;28;20034;-77
2022/03/29 19:51:57;;;;;;;29.15;14.68;;;;;;;9.02;84.16;100949.13;10376735;28;20385;-76
2022/03/29 19:56:59;;;;;;;36.65;16.67;;;;;;;8.98;83.61;100959.47;10376007;28;20111;-76
2022/03/29 20:01:59;;;;;;;23.02;13.60;;;;;;;8.95;82.36;100967.94;10375814;28;20108;-76
2022/03/29 20:07:00;;;;;;;23.42;15.85;;;;;;;8.84;82.49;100960.31;10376462;28;20042;-76
2022/03/29 20:12:00;;;;;;;23.67;15.88;;;;;;;8.70;83.45;100959.22;10377128;28;20112;-76
2022/03/29 20:17:01;;;;;;;21.88;13.93;;;;;;;8.55;83.60;100958.34;10375282;28;20112;-76
2022/03/29 20:22:03;;;;;;;26.75;15.82;;;;;;;8.53;82.38;100958.56;10378852;28;20029;-77
2022/03/29 20:27:03;;;;;;;26.17;15.27;;;;;;;8.47;81.36;100956.59;10375834;28;20040;-76
2022/03/29 20:32:04;;;;;;;33.15;17.23;;;;;;;8.30;80.65;100963.13;10374442;28;20075;-76
2022/03/29 20:37:05;;;;;;;28.33;17.63;;;;;;;8.15;79.58;100958.50;10375424;28;20471;-76
2022/03/29 20:42:05;;;;;;;26.23;17.23;;;;;;;7.95;83.71;100949.22;10377874;28;20033;-75
2022/03/29 20:47:06;;;;;;;24.40;16.20;;;;;;;7.95;81.51;100951.91;10381479;28;20045;-75
2022/03/29 20:52:06;;;;;;;33.90;17.10;;;;;;;7.89;81.52;100941.84;10384125;28;20486;-76
2022/03/29 20:57:06;;;;;;;34.47;17.55;;;;;;;7.87;82.23;100943.88;10385259;28;20041;-74
2022/03/29 21:02:07;;;;;;;24.50;16.88;;;;;;;7.89;80.93;100945.38;10385932;28;20389;-74
2022/03/29 21:07:07;;;;;;;24.33;17.90;;;;;;;7.90;82.36;100936.25;10388151;28;20045;-74
2022/03/29 21:12:08;;;;;;;41.17;18.92;;;;;;;8.03;84.65;100935.66;10385457;28;20140;-74
2022/03/29 21:17:09;;;;;;;30.95;18.83;;;;;;;8.12;83.75;100936.44;10384779;28;20050;-74
2022/03/29 21:22:10;;;;;;;25.15;15.73;;;;;;;8.13;85.58;100927.31;10389420;28;20042;-74
2022/03/29 21:27:12;;;;;;;34.08;18.17;;;;;;;8.14;86.81;100929.03;10386116;28;20042;-75
2022/03/29 21:32:13;;;;;;;32.97;16.23;;;;;;;8.22;86.68;100926.25;10381795;28;20088;-75
2022/03/29 21:37:13;;;;;;;30.48;14.90;;;;;;;8.25;86.62;100925.03;10382848;28;20068;-74
2022/03/29 21:42:14;;;;;;;33.30;18.48;;;;;;;8.29;86.17;100920.97;10379857;28;20536;-75
2022/03/29 21:47:14;;;;;;;24.88;17.55;;;;;;;8.34;86.15;100915.88;10381080;28;20069;-74
2022/03/29 21:52:14;;;;;;;24.05;16.10;;;;;;;8.32;86.17;100912.50;10381682;28;20030;-75
2022/03/29 21:57:15;;;;;;;28.45;18.55;;;;;;;8.34;84.87;100910.47;10380446;28;20041;-75
2022/03/29 22:02:15;;;;;;;31.35;17.55;;;;;;;8.28;84.71;100913.91;10382966;28;20048;-74
2022/03/29 22:07:16;;;;;;;25.75;16.90;;;;;;;8.18;84.45;100907.91;10380425;28;20486;-75
2022/03/29 22:12:17;;;;;;;30.67;19.15;;;;;;;7.91;86.60;100912.81;10380689;28;20088;-75
2022/03/29 22:17:17;;;;;;;26.50;16.42;;;;;;;7.80;86.29;100916.78;10379064;28;20068;-75
2022/03/29 22:22:17;;;;;;;31.77;18.40;;;;;;;7.66;86.87;100912.19;10380133;28;20073;-75
2022/03/29 22:27:18;;;;;;;27.70;20.33;;;;;;;7.48;88.12;100912.44;10380688;28;20135;-75
2022/03/29 22:32:18;;;;;;;21.48;16.80;;;;;;;7.46;87.31;100907.22;10362328;28;20061;-75
2022/03/29 22:37:19;;;;;;;33.67;18.15;;;;;;;7.42;87.57;100913.97;10380859;28;20095;-75
2022/03/29 22:42:19;;;;;;;30.35;17.50;;;;;;;7.46;86.82;100914.47;10379930;28;20113;-75
2022/03/29 22:47:19;;;;;;;35.17;19.13;;;;;;;7.42;86.88;100918.53;10380090;28;20034;-75
2022/03/29 22:52:20;;;;;;;27.42;17.75;;;;;;;7.38;87.43;100920.75;10378012;28;20109;-75